createdAt,value
2022-12-12T00:01:27.860Z,4.62
2022-12-12T00:03:54.772Z,4.66
2022-12-12T00:06:22.461Z,4.68
2022-12-12T00:08:49.561Z,4.70
2022-12-12T00:11:16.577Z,4.62
2022-12-12T00:13:43.642Z,4.56
2022-12-12T00:16:11.254Z,4.49
2022-12-12T00:18:38.199Z,4.46
2022-12-12T00:21:08.039Z,4.45
2022-12-12T00:23:34.692Z,4.42
2022-12-12T00:26:06.403Z,4.32
2022-12-12T00:28:33.683Z,4.33
2022-12-12T00:31:00.627Z,4.28
2022-12-12T00:33:27.425Z,4.27
2022-12-12T00:35:55.386Z,4.26
2022-12-12T00:38:23.582Z,4.25
2022-12-12T00:40:55.073Z,4.23
2022-12-12T00:43:21.749Z,4.25
2022-12-12T00:45:48.307Z,4.30
2022-12-12T00:48:15.118Z,4.32
2022-12-12T00:50:41.761Z,4.27
2022-12-12T00:53:08.726Z,4.24
2022-12-12T00:55:35.999Z,4.25
2022-12-12T00:58:02.791Z,4.24
2022-12-12T01:00:29.531Z,4.22
2022-12-12T01:02:57.862Z,4.18
2022-12-12T01:05:25.838Z,4.06
2022-12-12T01:07:52.991Z,3.95
2022-12-12T01:10:20.634Z,3.74
2022-12-12T01:12:47.355Z,3.49
2022-12-12T01:15:14.434Z,3.31
2022-12-12T01:17:41.238Z,3.09
2022-12-12T01:20:17.313Z,3.09
2022-12-12T01:22:44.136Z,3.01
2022-12-12T01:25:12.644Z,2.92
2022-12-12T01:27:39.575Z,2.92
2022-12-12T01:30:07.552Z,2.91
2022-12-12T01:32:34.539Z,2.94
2022-12-12T01:35:01.269Z,2.89
2022-12-12T01:37:28.157Z,2.92
2022-12-12T01:39:54.887Z,2.92
2022-12-12T01:42:23.526Z,2.96
2022-12-12T01:44:52.679Z,2.98
2022-12-12T01:47:22.313Z,2.99
2022-12-12T01:50:08.220Z,2.97
2022-12-12T01:52:43.158Z,2.92
2022-12-12T01:55:15.718Z,2.85
2022-12-12T01:57:47.272Z,2.79
2022-12-12T02:00:15.621Z,2.69
2022-12-12T02:02:46.278Z,2.63
2022-12-12T02:05:23.090Z,2.61
2022-12-12T02:07:50.159Z,2.64
2022-12-12T02:10:16.825Z,2.64
2022-12-12T02:12:43.669Z,2.68
2022-12-12T02:15:11.148Z,2.71
2022-12-12T02:17:46.505Z,2.69
2022-12-12T02:20:44.348Z,2.66
2022-12-12T02:23:55.651Z,2.50
2022-12-12T02:26:44.073Z,2.48
2022-12-12T02:29:28.735Z,2.49
2022-12-12T02:32:05.053Z,2.51
2022-12-12T02:35:31.083Z,2.48
2022-12-12T02:38:15.095Z,2.40
2022-12-12T02:40:55.892Z,2.46
2022-12-12T02:43:33.574Z,2.33
2022-12-12T02:46:26.842Z,2.32
2022-12-12T02:49:18.812Z,2.43
2022-12-12T02:51:46.130Z,2.58
2022-12-12T02:54:19.502Z,2.69
2022-12-12T02:56:47.600Z,2.64
2022-12-12T02:59:31.573Z,2.62
2022-12-12T03:02:33.005Z,2.68
2022-12-12T03:05:39.743Z,2.78
2022-12-12T03:08:52.903Z,2.79
2022-12-12T03:11:26.531Z,2.90
2022-12-12T03:13:58.960Z,3.08
2022-12-12T03:16:32.738Z,3.27
2022-12-12T03:19:24.382Z,3.46
2022-12-12T03:22:00.250Z,3.56
2022-12-12T03:24:38.561Z,3.71
2022-12-12T03:27:16.705Z,3.76
2022-12-12T03:29:48.341Z,3.75
2022-12-12T03:32:24.684Z,3.79
2022-12-12T03:35:09.739Z,3.87
2022-12-12T03:37:46.044Z,3.94
2022-12-12T03:40:25.152Z,3.97
2022-12-12T03:43:06.843Z,4.00
2022-12-12T03:45:47.688Z,4.04
2022-12-12T03:48:17.370Z,3.98
2022-12-12T03:50:55.079Z,3.94
2022-12-12T03:53:39.168Z,3.92
2022-12-12T03:56:11.705Z,3.96
2022-12-12T03:58:47.232Z,3.97
2022-12-12T04:01:15.143Z,3.94
2022-12-12T04:04:09.672Z,4.00
2022-12-12T04:06:41.988Z,3.93
2022-12-12T04:09:48.483Z,3.86
2022-12-12T04:12:37.697Z,3.79
2022-12-12T04:15:12.330Z,3.83
2022-12-12T04:17:49.544Z,3.91
2022-12-12T04:20:45.743Z,3.94
2022-12-12T04:23:27.377Z,3.94
2022-12-12T04:26:12.610Z,3.92
2022-12-12T04:28:44.158Z,3.93
2022-12-12T04:31:12.977Z,3.90
2022-12-12T04:33:45.778Z,3.92
2022-12-12T04:36:16.347Z,3.89
2022-12-12T04:38:46.678Z,3.82
2022-12-12T04:41:16.435Z,3.76
2022-12-12T04:43:44.392Z,3.78
2022-12-12T04:46:20.219Z,3.76
2022-12-12T04:48:53.702Z,3.85
2022-12-12T04:51:29.788Z,3.90
2022-12-12T04:54:13.561Z,3.92
2022-12-12T04:56:45.492Z,3.95
2022-12-12T04:59:12.744Z,3.97
2022-12-12T05:02:02.650Z,4.02
2022-12-12T05:04:43.611Z,4.02
2022-12-12T05:07:20.073Z,4.08
2022-12-12T05:09:48.238Z,4.13
2022-12-12T05:12:16.385Z,4.10
2022-12-12T05:14:43.122Z,4.09
2022-12-12T05:17:13.905Z,4.12
2022-12-12T05:19:40.558Z,4.14
2022-12-12T05:22:07.222Z,4.12
2022-12-12T05:24:33.749Z,4.00
2022-12-12T05:27:00.722Z,3.98
2022-12-12T05:29:27.392Z,4.02
2022-12-12T05:31:53.975Z,3.96
2022-12-12T05:34:20.578Z,3.94
2022-12-12T05:36:48.096Z,3.83
2022-12-12T05:39:14.718Z,3.74
2022-12-12T05:41:41.368Z,3.76
2022-12-12T05:44:07.947Z,3.76
2022-12-12T05:46:34.753Z,3.73
2022-12-12T05:49:02.047Z,3.62
2022-12-12T05:51:28.799Z,3.60
2022-12-12T05:53:55.595Z,3.63
2022-12-12T05:56:22.199Z,3.61
2022-12-12T05:58:49.152Z,3.65
2022-12-12T06:01:15.936Z,3.63
2022-12-12T06:03:42.646Z,3.64
2022-12-12T06:06:09.270Z,3.68
2022-12-12T06:08:36.006Z,3.76
2022-12-12T06:11:07.921Z,3.77
2022-12-12T06:13:34.944Z,3.66
2022-12-12T06:16:06.661Z,3.68
2022-12-12T06:18:33.430Z,3.71
2022-12-12T06:21:09.784Z,3.77
2022-12-12T06:23:40.643Z,3.75
2022-12-12T06:26:08.976Z,3.71
2022-12-12T06:28:36.305Z,3.67
2022-12-12T06:31:06.867Z,3.63
2022-12-12T06:33:38.435Z,3.65
2022-12-12T06:36:07.865Z,3.67
2022-12-12T06:38:35.634Z,3.67
2022-12-12T06:41:10.678Z,3.69
2022-12-12T06:43:37.240Z,3.73
2022-12-12T06:46:05.676Z,3.50
2022-12-12T06:48:34.204Z,3.11
2022-12-12T06:51:06.334Z,3.21
2022-12-12T06:53:33.087Z,3.32
2022-12-12T06:55:59.764Z,3.38
2022-12-12T06:58:26.399Z,3.01
2022-12-12T07:00:53.702Z,2.79
2022-12-12T07:03:20.392Z,2.68
2022-12-12T07:05:47.623Z,2.78
2022-12-12T07:08:15.368Z,2.75
2022-12-12T07:10:42.508Z,2.69
2022-12-12T07:13:09.214Z,2.85
2022-12-12T07:15:45.561Z,3.13
2022-12-12T07:18:13.140Z,3.37
2022-12-12T07:20:45.000Z,3.51
2022-12-12T07:23:12.236Z,3.60
2022-12-12T07:25:40.838Z,3.30
2022-12-12T07:28:08.453Z,3.31
2022-12-12T07:30:35.093Z,3.15
2022-12-12T07:33:01.682Z,3.13
2022-12-12T07:35:28.530Z,3.07
2022-12-12T07:37:56.520Z,3.24
2022-12-12T07:40:23.655Z,3.34
2022-12-12T07:42:50.377Z,3.35
2022-12-12T07:45:18.613Z,3.15
2022-12-12T07:47:45.648Z,3.12
2022-12-12T07:50:12.700Z,3.17
2022-12-12T07:52:39.310Z,3.24
2022-12-12T07:55:06.786Z,3.07
2022-12-12T07:57:33.639Z,2.89
2022-12-12T08:00:00.361Z,2.91
2022-12-12T08:02:26.984Z,2.78
2022-12-12T08:04:53.628Z,2.69
2022-12-12T08:07:20.299Z,2.88
2022-12-12T08:09:47.015Z,2.83
2022-12-12T08:12:13.746Z,2.62
2022-12-12T08:14:40.413Z,2.56
2022-12-12T08:17:07.135Z,2.53
2022-12-12T08:19:33.796Z,2.51
2022-12-12T08:22:00.392Z,2.82
2022-12-12T08:24:28.627Z,2.94
2022-12-12T08:26:55.708Z,3.21
2022-12-12T08:29:22.965Z,3.52
2022-12-12T08:31:50.085Z,3.68
2022-12-12T08:34:17.686Z,3.88
2022-12-12T08:36:45.208Z,3.83
2022-12-12T08:39:14.279Z,3.57
2022-12-12T08:41:42.868Z,3.29
2022-12-12T08:44:12.021Z,3.25
2022-12-12T08:46:39.450Z,3.42
2022-12-12T08:49:06.383Z,3.82
2022-12-12T08:51:34.182Z,4.13
2022-12-12T08:54:00.861Z,4.36
2022-12-12T08:56:27.578Z,4.46
2022-12-12T08:58:54.443Z,4.55
2022-12-12T09:01:23.888Z,4.54
2022-12-12T09:03:51.740Z,4.58
2022-12-12T09:06:18.982Z,4.66
2022-12-12T09:08:46.325Z,4.76
2022-12-12T09:11:13.191Z,4.85
2022-12-12T09:13:40.595Z,4.82
2022-12-12T09:16:09.011Z,4.85
2022-12-12T09:18:36.948Z,4.96
2022-12-12T09:21:04.406Z,5.09
2022-12-12T09:23:31.316Z,5.12
2022-12-12T09:25:57.922Z,5.11
2022-12-12T09:28:26.230Z,5.12
2022-12-12T09:30:52.928Z,5.16
2022-12-12T09:33:19.865Z,5.16
2022-12-12T09:35:46.403Z,5.13
2022-12-12T09:38:14.831Z,5.05
2022-12-12T09:41:20.321Z,4.95
2022-12-12T09:43:59.825Z,4.39
2022-12-12T09:46:47.189Z,4.11
2022-12-12T09:49:27.404Z,4.08
2022-12-12T09:51:55.213Z,3.72
2022-12-12T09:54:25.544Z,3.63
2022-12-12T09:57:32.804Z,3.50
2022-12-12T10:00:05.440Z,3.19
2022-12-12T10:02:56.618Z,3.24
2022-12-12T10:05:41.275Z,3.29
2022-12-12T10:08:40.170Z,3.57
2022-12-12T10:11:32.979Z,3.64
2022-12-12T10:14:02.726Z,3.67
2022-12-12T10:16:31.709Z,3.73
2022-12-12T10:19:09.073Z,3.79
2022-12-12T10:21:40.781Z,3.75
2022-12-12T10:24:30.246Z,4.00
2022-12-12T10:26:58.476Z,4.04
2022-12-12T10:29:26.553Z,4.18
2022-12-12T10:32:08.021Z,4.38
2022-12-12T10:34:51.653Z,4.34
2022-12-12T10:37:46.544Z,4.35
2022-12-12T10:40:41.240Z,4.46
2022-12-12T10:43:20.073Z,4.42
2022-12-12T10:46:11.818Z,4.70
2022-12-12T10:48:39.875Z,4.72
2022-12-12T10:51:11.984Z,4.58
2022-12-12T10:53:42.129Z,4.46
2022-12-12T10:56:13.324Z,4.45
2022-12-12T10:58:52.130Z,4.13
2022-12-12T11:01:38.377Z,3.93
2022-12-12T11:04:08.901Z,3.77
2022-12-12T11:06:45.156Z,3.61
2022-12-12T11:09:15.105Z,3.71
2022-12-12T11:12:05.343Z,3.93
2022-12-12T11:14:34.358Z,4.76
2022-12-12T11:17:01.111Z,5.40
2022-12-12T11:19:35.773Z,5.53
2022-12-12T11:22:04.795Z,5.64
2022-12-12T11:24:34.846Z,5.73
2022-12-12T11:27:05.679Z,5.82
2022-12-12T11:29:44.352Z,5.77
2022-12-12T11:32:37.713Z,5.77
2022-12-12T11:35:21.931Z,6.02
2022-12-12T11:37:51.427Z,6.01
2022-12-12T11:40:33.786Z,6.28
2022-12-12T11:43:26.217Z,6.45
2022-12-12T11:46:08.175Z,6.26
2022-12-12T11:48:36.784Z,5.70
2022-12-12T11:51:03.676Z,5.50
2022-12-12T11:53:35.177Z,5.44
2022-12-12T11:56:23.570Z,7.67
2022-12-12T11:59:18.172Z,8.82
2022-12-12T12:01:59.938Z,7.20
2022-12-12T12:04:51.274Z,6.41
2022-12-12T12:07:42.364Z,6.12
2022-12-12T12:10:24.012Z,6.47
2022-12-12T12:13:12.127Z,6.49
2022-12-12T12:16:20.674Z,5.97
2022-12-12T12:19:18.398Z,5.74
2022-12-12T12:22:16.083Z,5.46
2022-12-12T12:24:48.679Z,5.62
2022-12-12T12:27:45.278Z,5.57
2022-12-12T12:30:18.161Z,5.48
2022-12-12T12:32:57.028Z,5.17
2022-12-12T12:35:37.796Z,5.17
2022-12-12T12:38:25.868Z,5.37
2022-12-12T12:41:20.545Z,5.54
2022-12-12T12:44:03.831Z,5.48
2022-12-12T12:47:05.552Z,5.43
2022-12-12T12:49:53.162Z,5.48
2022-12-12T12:52:31.225Z,5.22
2022-12-12T12:54:59.708Z,5.27
2022-12-12T12:57:39.202Z,5.38
2022-12-12T13:00:20.773Z,4.96
2022-12-12T13:02:56.544Z,4.75
2022-12-12T13:05:36.553Z,4.76
2022-12-12T13:08:06.182Z,4.92
2022-12-12T13:10:33.612Z,4.97
2022-12-12T13:13:15.173Z,4.80
2022-12-12T13:15:46.667Z,4.70
2022-12-12T13:18:15.655Z,4.67
2022-12-12T13:20:49.765Z,4.63
2022-12-12T13:23:16.422Z,4.55
2022-12-12T13:26:02.838Z,4.34
2022-12-12T13:28:36.562Z,4.26
2022-12-12T13:31:13.246Z,4.35
2022-12-12T13:33:49.439Z,4.32
2022-12-12T13:36:30.162Z,4.23
2022-12-12T13:39:00.088Z,4.42
2022-12-12T13:41:27.222Z,4.43
2022-12-12T13:44:00.047Z,4.43
2022-12-12T13:46:27.321Z,4.52
2022-12-12T13:49:10.586Z,4.46
2022-12-12T13:51:40.729Z,4.42
2022-12-12T13:54:14.970Z,4.34
2022-12-12T13:56:45.800Z,4.41
2022-12-12T13:59:27.715Z,4.39
2022-12-12T14:02:00.903Z,4.25
2022-12-12T14:04:32.056Z,4.25
2022-12-12T14:07:04.034Z,4.13
2022-12-12T14:09:47.669Z,4.14
2022-12-12T14:12:21.995Z,4.09
2022-12-12T14:15:21.334Z,3.92
2022-12-12T14:17:56.247Z,3.89
2022-12-12T14:20:31.047Z,4.04
2022-12-12T14:23:09.247Z,4.09
2022-12-12T14:25:38.583Z,4.12
2022-12-12T14:28:25.256Z,4.09
2022-12-12T14:30:59.305Z,3.82
2022-12-12T14:33:49.293Z,3.75
2022-12-12T14:36:37.647Z,3.70
2022-12-12T14:39:07.230Z,3.63
2022-12-12T14:41:37.518Z,3.44
2022-12-12T14:44:37.261Z,3.38
2022-12-12T14:47:07.551Z,3.36
2022-12-12T14:49:34.145Z,3.31
2022-12-12T14:52:01.101Z,3.33
2022-12-12T14:54:28.390Z,3.37
2022-12-12T14:57:03.950Z,3.42
2022-12-12T14:59:38.016Z,3.51
2022-12-12T15:02:25.887Z,3.40
2022-12-12T15:05:04.198Z,3.37
2022-12-12T15:07:38.306Z,3.25
2022-12-12T15:10:27.845Z,3.11
2022-12-12T15:12:54.647Z,3.04
2022-12-12T15:15:27.612Z,3.05
2022-12-12T15:17:56.765Z,3.02
2022-12-12T15:20:26.642Z,3.03
2022-12-12T15:23:00.083Z,3.13
2022-12-12T15:25:30.766Z,3.17
2022-12-12T15:27:57.896Z,3.14
2022-12-12T15:30:33.619Z,2.98
2022-12-12T15:33:02.905Z,2.86
2022-12-12T15:35:29.666Z,2.91
2022-12-12T15:38:08.341Z,3.01
2022-12-12T15:40:39.613Z,2.99
2022-12-12T15:43:15.394Z,2.84
2022-12-12T15:45:46.623Z,2.89
2022-12-12T15:48:17.527Z,2.91
2022-12-12T15:50:44.038Z,2.93
2022-12-12T15:53:26.361Z,2.89
2022-12-12T15:56:14.445Z,2.91
2022-12-12T15:58:44.165Z,2.78
2022-12-12T16:01:20.313Z,2.76
2022-12-12T16:04:08.551Z,2.53
2022-12-12T16:06:48.369Z,2.53
2022-12-12T16:09:21.175Z,2.57
2022-12-12T16:11:58.673Z,2.64
2022-12-12T16:14:41.611Z,2.72
2022-12-12T16:17:16.182Z,2.64
2022-12-12T16:20:01.519Z,2.61
2022-12-12T16:22:44.670Z,2.68
2022-12-12T16:25:33.839Z,2.76
2022-12-12T16:28:12.463Z,2.72
2022-12-12T16:30:41.840Z,2.61
2022-12-12T16:33:23.027Z,2.60
2022-12-12T16:35:50.776Z,2.69
2022-12-12T16:38:18.426Z,2.78
2022-12-12T16:40:47.517Z,2.83
2022-12-12T16:43:17.888Z,2.85
2022-12-12T16:45:44.667Z,2.80
2022-12-12T16:48:22.952Z,2.62
2022-12-12T16:50:52.715Z,2.57
2022-12-12T16:53:20.107Z,2.62
2022-12-12T16:55:49.617Z,2.60
2022-12-12T16:58:17.079Z,2.64
2022-12-12T17:00:45.096Z,2.73
2022-12-12T17:03:14.954Z,2.76
2022-12-12T17:05:42.204Z,2.76
2022-12-12T17:08:09.042Z,2.73
2022-12-12T17:10:36.576Z,2.76
2022-12-12T17:13:12.684Z,2.77
2022-12-12T17:15:39.256Z,2.72
2022-12-12T17:18:05.851Z,2.71
2022-12-12T17:20:37.619Z,2.64
2022-12-12T17:23:27.951Z,2.64
2022-12-12T17:26:00.744Z,2.66
2022-12-12T17:28:30.683Z,2.69
2022-12-12T17:30:57.390Z,2.67
2022-12-12T17:33:24.019Z,2.62
2022-12-12T17:36:01.793Z,2.59
2022-12-12T17:38:30.528Z,2.53
2022-12-12T17:40:57.855Z,2.60
2022-12-12T17:43:25.634Z,2.68
2022-12-12T17:46:05.137Z,2.66
2022-12-12T17:48:32.793Z,2.60
2022-12-12T17:51:11.600Z,2.43
2022-12-12T17:53:39.270Z,2.39
2022-12-12T17:56:11.780Z,2.42
2022-12-12T17:58:41.445Z,2.37
2022-12-12T18:01:11.950Z,2.34
2022-12-12T18:03:38.825Z,2.31
2022-12-12T18:06:06.161Z,2.24
2022-12-12T18:08:33.735Z,2.17
2022-12-12T18:11:00.692Z,2.07
2022-12-12T18:13:54.735Z,2.06
2022-12-12T18:16:23.784Z,2.10
2022-12-12T18:18:54.244Z,2.14
2022-12-12T18:24:21.068Z,2.25
2022-12-12T18:26:56.082Z,2.28
2022-12-12T18:29:26.200Z,2.22
2022-12-12T18:31:55.833Z,2.20
2022-12-12T18:34:26.263Z,2.26
2022-12-12T18:36:54.073Z,2.30
2022-12-12T18:39:20.814Z,2.27
2022-12-12T18:41:47.821Z,2.10
2022-12-12T18:44:15.622Z,1.81
2022-12-12T18:46:43.675Z,1.71
2022-12-12T18:49:15.692Z,1.78
2022-12-12T18:51:43.529Z,1.89
2022-12-12T18:54:15.516Z,1.94
2022-12-12T18:56:44.766Z,1.96
2022-12-12T18:59:15.505Z,1.96
2022-12-12T19:01:45.724Z,1.89
2022-12-12T19:04:22.902Z,1.97
2022-12-12T19:06:51.784Z,1.98
2022-12-12T19:09:19.999Z,1.95
2022-12-12T19:11:47.374Z,1.92
2022-12-12T19:14:16.055Z,1.95
2022-12-12T19:16:44.081Z,1.89
2022-12-12T19:19:13.530Z,1.88
2022-12-12T19:21:41.447Z,1.72
2022-12-12T19:24:10.487Z,1.64
2022-12-12T19:26:39.496Z,1.74
2022-12-12T19:29:10.574Z,1.64
2022-12-12T19:31:37.593Z,1.52
2022-12-12T19:34:06.352Z,1.51
2022-12-12T19:36:44.821Z,1.51
2022-12-12T19:39:14.083Z,1.59
2022-12-12T19:41:41.696Z,1.70
2022-12-12T19:44:12.582Z,1.78
2022-12-12T19:46:46.317Z,1.86
2022-12-12T19:49:15.703Z,1.78
2022-12-12T19:51:45.791Z,1.73
2022-12-12T19:54:15.908Z,1.74
2022-12-12T19:56:44.597Z,1.70
2022-12-12T19:59:17.030Z,1.67
2022-12-12T20:01:44.069Z,1.58
2022-12-12T20:04:22.726Z,1.56
2022-12-12T20:06:51.708Z,1.66
2022-12-12T20:09:26.032Z,1.73
2022-12-12T20:11:55.719Z,1.81
2022-12-12T20:14:24.148Z,1.80
2022-12-12T20:16:51.922Z,1.65
2022-12-12T20:19:19.313Z,1.66
2022-12-12T20:22:05.918Z,1.70
2022-12-12T20:24:33.732Z,1.68
2022-12-12T20:27:03.698Z,1.70
2022-12-12T20:29:31.659Z,1.62
2022-12-12T20:31:59.861Z,1.63
2022-12-12T20:34:30.004Z,1.62
2022-12-12T20:36:59.380Z,1.59
2022-12-12T20:39:26.286Z,1.52
2022-12-12T20:41:54.002Z,1.52
2022-12-12T20:44:23.361Z,1.59
2022-12-12T20:46:51.034Z,1.61
2022-12-12T20:49:20.273Z,1.67
2022-12-12T20:51:58.349Z,1.67
2022-12-12T20:54:29.691Z,1.67
2022-12-12T20:57:03.153Z,1.65
2022-12-12T20:59:30.304Z,1.62
2022-12-12T21:01:57.032Z,1.63
2022-12-12T21:04:24.316Z,1.61
2022-12-12T21:06:52.005Z,1.59
2022-12-12T21:09:25.830Z,1.56
2022-12-12T21:11:58.229Z,1.42
2022-12-12T21:14:27.388Z,1.35
2022-12-12T21:16:54.461Z,1.34
2022-12-12T21:19:25.398Z,1.32
2022-12-12T21:21:53.425Z,1.40
2022-12-12T21:24:24.293Z,1.34
2022-12-12T21:26:51.305Z,1.17
2022-12-12T21:29:20.236Z,1.06
2022-12-12T21:31:51.924Z,1.04
2022-12-12T21:34:23.406Z,1.07
2022-12-12T21:37:00.436Z,1.05
2022-12-12T21:39:29.152Z,1.01
2022-12-12T21:41:56.668Z,0.98
2022-12-12T21:44:24.590Z,1.05
2022-12-12T21:46:51.708Z,1.12
2022-12-12T21:49:28.264Z,0.99
2022-12-12T21:51:59.747Z,0.87
2022-12-12T21:54:29.287Z,0.87
2022-12-12T21:57:03.218Z,0.80
2022-12-12T21:59:30.417Z,0.76
2022-12-12T22:02:00.190Z,0.77
2022-12-12T22:04:32.788Z,0.77
2022-12-12T22:07:02.010Z,0.78
2022-12-12T22:09:29.119Z,0.72
2022-12-12T22:12:03.133Z,0.62
2022-12-12T22:14:31.561Z,0.56
2022-12-12T22:16:58.739Z,0.59
2022-12-12T22:19:25.645Z,0.62
2022-12-12T22:21:55.327Z,0.62
2022-12-12T22:24:23.306Z,0.59
2022-12-12T22:26:50.776Z,0.60
2022-12-12T22:29:20.113Z,0.42
2022-12-12T22:31:50.369Z,0.30
2022-12-12T22:34:22.471Z,0.27
2022-12-12T22:36:53.847Z,0.31
2022-12-12T22:39:26.301Z,0.34
2022-12-12T22:41:55.393Z,0.42
2022-12-12T22:44:27.760Z,0.35
2022-12-12T22:46:55.868Z,0.42
2022-12-12T22:49:25.945Z,0.51
2022-12-12T22:51:54.649Z,0.53
2022-12-12T22:54:21.562Z,0.55
2022-12-12T22:56:51.296Z,0.56
2022-12-12T22:59:18.135Z,0.60
2022-12-12T23:01:44.891Z,0.59
2022-12-12T23:04:13.411Z,0.63
2022-12-12T23:06:41.376Z,0.62
2022-12-12T23:09:18.339Z,0.63
2022-12-12T23:11:46.129Z,0.64
2022-12-12T23:14:16.195Z,0.64
2022-12-12T23:16:44.341Z,0.60
2022-12-12T23:19:14.739Z,0.53
2022-12-12T23:21:42.067Z,0.50
2022-12-12T23:24:12.107Z,0.52
2022-12-12T23:26:39.169Z,0.50
2022-12-12T23:29:09.354Z,0.43
2022-12-12T23:31:37.953Z,0.40
2022-12-12T23:34:09.397Z,0.42
2022-12-12T23:36:38.679Z,0.45
2022-12-12T23:39:15.315Z,0.46
2022-12-12T23:41:46.730Z,0.45
2022-12-12T23:44:15.465Z,0.45
2022-12-12T23:46:47.261Z,0.44
2022-12-12T23:49:20.397Z,0.42
2022-12-12T23:51:50.328Z,0.42
2022-12-12T23:54:20.059Z,0.33
2022-12-12T23:56:50.449Z,0.16
2022-12-12T23:59:18.948Z,0.10
